Time;durP1;ratioP1;P1;durP2;ratioP2;P2;SDS_P1;SDS_P2;PMS_P1;PMS_P2;Temp;Humidity;BMP_temperature;BMP_pressure;BME280_temperature;BME280_humidity;BME280_pressure;Samples;Min_cycle;Max_cycle;Signal;HPM_P1;HPM_P2
2022/10/15 00:01:10;;;;;;;1.90;1.80;;;;;;;13.91;100.00;99598.03;5010423;28;20205;-73
2022/10/15 00:03:39;;;;;;;0.97;0.97;;;;;;;13.92;100.00;99597.69;5010488;28;20200;-73
2022/10/15 00:06:07;;;;;;;2.73;2.53;;;;;;;13.94;100.00;99600.06;5010418;28;20177;-73
2022/10/15 00:08:33;;;;;;;4.63;1.37;;;;;;;13.95;100.00;99596.19;5010477;28;20260;-73
2022/10/15 00:11:04;;;;;;;0.77;0.77;;;;;;;13.95;100.00;99587.94;5010495;28;20199;-73
2022/10/15 00:13:29;;;;;;;0.57;0.57;;;;;;;13.97;100.00;99580.94;5010318;28;20184;-73
2022/10/15 00:15:54;;;;;;;0.33;0.33;;;;;;;13.95;100.00;99585.19;5010334;28;20188;-73
2022/10/15 00:18:20;;;;;;;1.13;0.67;;;;;;;13.95;100.00;99582.44;5012396;28;20208;-73
2022/10/15 00:20:45;;;;;;;1.13;1.03;;;;;;;13.94;100.00;99575.34;5027730;28;20663;-73
2022/10/15 00:23:10;;;;;;;0.97;0.97;;;;;;;13.93;100.00;99568.28;5033677;28;20263;-73
2022/10/15 00:25:36;;;;;;;0.20;0.20;;;;;;;13.95;100.00;99574.22;5033719;28;20755;-73
2022/10/15 00:28:02;;;;;;;0.10;0.10;;;;;;;13.93;100.00;99574.56;5033411;28;20176;-74
2022/10/15 00:30:27;;;;;;;1.90;1.80;;;;;;;13.92;100.00;99572.19;5033356;28;20179;-73
2022/10/15 00:32:53;;;;;;;1.70;1.60;;;;;;;13.92;100.00;99580.41;5033492;28;20176;-73
2022/10/15 00:35:18;;;;;;;0.87;0.87;;;;;;;13.88;100.00;99585.00;5033599;28;20266;-73
2022/10/15 00:37:44;;;;;;;1.97;1.57;;;;;;;13.86;100.00;99590.84;5033327;28;20176;-73
2022/10/15 00:40:13;;;;;;;1.03;1.03;;;;;;;13.88;100.00;99593.22;5033176;28;20291;-74
2022/10/15 00:42:39;;;;;;;1.23;1.23;;;;;;;13.85;100.00;99586.50;5033370;28;20255;-73
2022/10/15 00:45:04;;;;;;;0.77;0.77;;;;;;;13.85;100.00;99575.53;5033457;28;20275;-73
2022/10/15 00:47:39;;;;;;;1.20;0.93;;;;;;;13.84;100.00;99582.16;5033036;28;20198;-73
2022/10/15 00:50:11;;;;;;;0.53;0.53;;;;;;;13.83;100.00;99583.31;5033112;28;20183;-73
2022/10/15 00:52:40;;;;;;;0.60;0.33;;;;;;;13.85;100.00;99582.97;5033110;28;20184;-73
2022/10/15 00:55:14;;;;;;;0.93;0.93;;;;;;;13.84;100.00;99576.69;5033146;28;20176;-73
2022/10/15 00:57:41;;;;;;;0.00;0.00;;;;;;;13.82;100.00;99570.75;5033139;28;20185;-73
2022/10/15 01:00:10;;;;;;;2.43;2.20;;;;;;;13.81;100.00;99574.66;5032897;28;20203;-73
2022/10/15 01:02:35;;;;;;;1.30;1.23;;;;;;;13.79;100.00;99571.47;5032802;28;20211;-73
2022/10/15 01:05:01;;;;;;;0.00;0.00;;;;;;;13.79;100.00;99559.69;5033028;28;20211;-74
2022/10/15 01:07:26;;;;;;;3.80;1.50;;;;;;;13.72;100.00;99568.53;5033066;28;20192;-73
2022/10/15 01:09:52;;;;;;;0.00;0.00;;;;;;;13.74;100.00;99566.22;5021293;28;20184;-74
2022/10/15 01:12:43;;;;;;;0.00;0.00;;;;;;;13.78;100.00;99558.88;5013156;28;20571;-73
2022/10/15 01:15:17;;;;;;;1.50;0.20;;;;;;;13.75;100.00;99551.38;5012970;28;20542;-73
2022/10/15 01:18:21;;;;;;;0.00;0.00;;;;;;;13.78;100.00;99564.38;5012842;28;20164;-73
2022/10/15 01:21:14;;;;;;;0.00;0.00;;;;;;;13.80;100.00;99555.78;5019776;28;20215;-74
2022/10/15 01:24:12;;;;;;;0.10;0.10;;;;;;;13.75;100.00;99556.88;5032622;28;20176;-73
2022/10/15 01:27:15;;;;;;;0.10;0.10;;;;;;;13.77;100.00;99556.50;5032514;28;20642;-74
2022/10/15 01:30:02;;;;;;;1.40;1.40;;;;;;;13.79;100.00;99551.44;5031801;28;20179;-74
2022/10/15 01:32:30;;;;;;;0.00;0.00;;;;;;;13.72;100.00;99556.75;5032573;28;20628;-73
2022/10/15 01:35:11;;;;;;;0.00;0.00;;;;;;;13.73;100.00;99547.34;5032591;28;20184;-73
2022/10/15 01:37:49;;;;;;;0.00;0.00;;;;;;;13.74;100.00;99547.00;5032361;28;20270;-73
2022/10/15 01:40:22;;;;;;;0.40;0.40;;;;;;;13.72;100.00;99552.06;5031930;28;20195;-73
2022/10/15 01:42:55;;;;;;;0.10;0.10;;;;;;;13.66;100.00;99554.28;5032437;28;20225;-73
2022/10/15 01:45:33;;;;;;;0.00;0.00;;;;;;;13.65;100.00;99544.44;5032211;28;20636;-73
2022/10/15 01:48:04;;;;;;;0.07;0.07;;;;;;;13.60;100.00;99547.47;5014330;28;20649;-73
2022/10/15 01:50:32;;;;;;;0.27;0.27;;;;;;;13.53;100.00;99538.25;5031980;28;20263;-73
2022/10/15 01:52:59;;;;;;;0.20;0.20;;;;;;;13.47;100.00;99540.47;5032067;28;20180;-73
2022/10/15 01:55:25;;;;;;;0.50;0.50;;;;;;;13.39;100.00;99533.97;5031938;28;20570;-73
2022/10/15 01:57:53;;;;;;;1.27;1.17;;;;;;;13.34;100.00;99533.47;5032015;28;20175;-73
2022/10/15 02:00:18;;;;;;;3.63;3.43;;;;;;;13.34;100.00;99533.47;5031811;28;20207;-73
2022/10/15 02:02:43;;;;;;;1.70;1.60;;;;;;;13.32;100.00;99535.75;5031709;28;20172;-73
2022/10/15 02:05:20;;;;;;;1.60;1.53;;;;;;;13.30;100.00;99540.78;5031816;28;20176;-73
2022/10/15 02:08:03;;;;;;;3.37;3.07;;;;;;;13.27;100.00;99536.78;5031675;28;20167;-73
2022/10/15 02:11:08;;;;;;;3.23;2.87;;;;;;;13.26;100.00;99537.16;5031782;28;20172;-73
2022/10/15 02:13:45;;;;;;;2.73;2.53;;;;;;;13.26;100.00;99532.47;4970136;28;20177;-73
2022/10/15 02:16:24;;;;;;;1.23;1.13;;;;;;;13.24;100.00;99526.53;5025623;28;20223;-73
2022/10/15 02:19:01;;;;;;;3.83;2.53;;;;;;;13.25;100.00;99527.31;5031476;28;20179;-73
2022/10/15 02:22:08;;;;;;;0.73;0.73;;;;;;;13.20;100.00;99511.13;5031498;28;20263;-73
2022/10/15 02:24:51;;;;;;;1.27;1.27;;;;;;;13.19;100.00;99517.78;4967567;28;20276;-73
2022/10/15 02:27:18;;;;;;;1.10;0.97;;;;;;;13.16;100.00;99516.47;4950680;29;20190;-72
2022/10/15 02:29:47;;;;;;;0.00;0.00;;;;;;;13.18;100.00;99507.91;4986495;28;20219;-73
2022/10/15 02:32:15;;;;;;;0.00;0.00;;;;;;;13.20;100.00;99513.88;5011773;28;20180;-73
2022/10/15 02:34:41;;;;;;;0.00;0.00;;;;;;;13.02;100.00;99514.16;5011773;28;20237;-73
2022/10/15 02:37:07;;;;;;;0.00;0.00;;;;;;;13.06;100.00;99522.50;4994119;28;20539;-73
2022/10/15 02:39:33;;;;;;;0.00;0.00;;;;;;;13.01;100.00;99511.75;5011432;28;20177;-73
2022/10/15 02:41:59;;;;;;;0.00;0.00;;;;;;;12.95;100.00;99511.22;5010592;28;20536;-73
2022/10/15 02:44:25;;;;;;;0.00;0.00;;;;;;;12.82;100.00;99505.00;5011313;28;20180;-73
2022/10/15 02:46:50;;;;;;;0.00;0.00;;;;;;;12.79;100.00;99505.69;4993670;28;20177;-73
2022/10/15 02:49:16;;;;;;;0.00;0.00;;;;;;;12.97;100.00;99495.22;5011330;28;20179;-74
2022/10/15 02:51:41;;;;;;;0.00;0.00;;;;;;;12.90;100.00;99494.25;5011315;28;20311;-73
2022/10/15 02:54:07;;;;;;;0.00;0.00;;;;;;;12.93;100.00;99499.81;5011288;28;20188;-73
2022/10/15 02:56:32;;;;;;;0.00;0.00;;;;;;;13.08;100.00;99490.03;5011178;28;20181;-73
2022/10/15 02:58:58;;;;;;;0.00;0.00;;;;;;;13.15;100.00;99495.69;5011141;28;20660;-73
2022/10/15 03:01:23;;;;;;;0.20;0.20;;;;;;;13.10;100.00;99496.75;5011222;28;20208;-73
2022/10/15 03:03:48;;;;;;;0.00;0.00;;;;;;;13.08;100.00;99495.50;5011068;28;20185;-73
2022/10/15 03:06:14;;;;;;;0.00;0.00;;;;;;;12.98;100.00;99509.72;5011013;28;20511;-73
2022/10/15 03:08:41;;;;;;;0.00;0.00;;;;;;;12.95;100.00;99507.69;5011099;28;20180;-72
2022/10/15 03:11:07;;;;;;;0.00;0.00;;;;;;;12.82;100.00;99510.47;5011082;28;20181;-72
2022/10/15 03:13:35;;;;;;;0.00;0.00;;;;;;;12.85;100.00;99508.97;4993407;28;20242;-73
2022/10/15 03:16:03;;;;;;;0.00;0.00;;;;;;;12.87;100.00;99511.38;5010876;28;20181;-73
2022/10/15 03:18:28;;;;;;;0.00;0.00;;;;;;;12.90;100.00;99510.69;5011308;28;20242;-73
2022/10/15 03:20:55;;;;;;;0.00;0.00;;;;;;;12.88;100.00;99516.53;5010913;28;20680;-73
2022/10/15 03:23:20;;;;;;;0.00;0.00;;;;;;;12.91;100.00;99513.06;5011112;28;20236;-72
2022/10/15 03:25:46;;;;;;;0.00;0.00;;;;;;;12.81;100.00;99513.56;5010737;28;20196;-73
2022/10/15 03:28:11;;;;;;;0.00;0.00;;;;;;;12.67;100.00;99502.19;5010794;28;20688;-73
2022/10/15 03:30:36;;;;;;;0.00;0.00;;;;;;;12.67;100.00;99508.47;4992869;28;20234;-73
2022/10/15 03:33:01;;;;;;;0.00;0.00;;;;;;;12.66;100.00;99511.56;5010878;28;20177;-73
2022/10/15 03:35:27;;;;;;;0.00;0.00;;;;;;;12.80;100.00;99501.00;5011046;28;20180;-73
2022/10/15 03:37:52;;;;;;;0.00;0.00;;;;;;;12.86;100.00;99509.78;5010681;28;20181;-73
2022/10/15 03:40:17;;;;;;;0.00;0.00;;;;;;;12.79;100.00;99505.69;5010481;28;20204;-72
2022/10/15 03:42:43;;;;;;;0.00;0.00;;;;;;;12.74;100.00;99505.16;5010807;28;20243;-73
2022/10/15 03:45:08;;;;;;;0.00;0.00;;;;;;;12.76;100.00;99516.56;5026490;28;20275;-73
2022/10/15 03:47:34;;;;;;;0.00;0.00;;;;;;;12.71;100.00;99503.09;5030477;28;20191;-73
2022/10/15 03:49:59;;;;;;;0.00;0.00;;;;;;;12.69;100.00;99502.66;5012612;28;20571;-73
2022/10/15 03:52:24;;;;;;;0.03;0.03;;;;;;;12.66;100.00;99517.06;5030991;28;20715;-74
2022/10/15 03:54:50;;;;;;;0.00;0.00;;;;;;;12.59;100.00;99505.91;5033219;28;20180;-73
2022/10/15 03:57:15;;;;;;;0.00;0.00;;;;;;;12.62;100.00;99503.25;5034154;28;20172;-73
2022/10/15 03:59:40;;;;;;;0.00;0.00;;;;;;;12.57;100.00;99510.91;5034132;28;20200;-74
2022/10/15 04:02:05;;;;;;;0.00;0.00;;;;;;;12.59;100.00;99511.38;5034228;28;20536;-73
2022/10/15 04:04:31;;;;;;;0.00;0.00;;;;;;;12.51;100.00;99505.69;5034207;28;20187;-74
2022/10/15 04:06:56;;;;;;;0.00;0.00;;;;;;;12.50;100.00;99509.56;5033965;28;20180;-73
2022/10/15 04:09:21;;;;;;;0.00;0.00;;;;;;;12.45;100.00;99506.28;5033913;28;20625;-74
2022/10/15 04:11:47;;;;;;;0.30;0.30;;;;;;;12.42;100.00;99512.44;5034219;28;20175;-73
2022/10/15 04:14:12;;;;;;;0.63;0.63;;;;;;;12.32;100.00;99501.97;5033913;28;20473;-73
2022/10/15 04:16:37;;;;;;;0.00;0.00;;;;;;;12.28;100.00;99512.81;5033673;28;20172;-73
2022/10/15 04:19:03;;;;;;;0.10;0.10;;;;;;;12.31;100.00;99514.88;5016190;28;20241;-73
2022/10/15 04:21:28;;;;;;;0.00;0.00;;;;;;;12.25;100.00;99504.50;5033794;28;20207;-73
2022/10/15 04:23:53;;;;;;;0.00;0.00;;;;;;;12.24;100.00;99513.84;5034234;28;20253;-73
2022/10/15 04:26:19;;;;;;;0.17;0.17;;;;;;;12.16;100.00;99510.13;5033647;28;20644;-73
2022/10/15 04:28:46;;;;;;;0.40;0.40;;;;;;;12.08;100.00;99505.53;5015914;28;20259;-73
2022/10/15 04:31:12;;;;;;;0.00;0.00;;;;;;;12.03;100.00;99511.25;5033467;28;20180;-73
2022/10/15 04:33:37;;;;;;;0.00;0.00;;;;;;;12.02;100.00;99505.00;5033656;28;20179;-72
2022/10/15 04:36:10;;;;;;;0.30;0.30;;;;;;;11.99;100.00;99504.84;5033292;28;20504;-73
2022/10/15 04:38:36;;;;;;;0.00;0.00;;;;;;;11.99;100.00;99504.84;5033941;28;20183;-73
2022/10/15 04:41:05;;;;;;;0.00;0.00;;;;;;;11.99;100.00;99504.84;5033382;28;20563;-73
2022/10/15 04:43:31;;;;;;;0.00;0.00;;;;;;;12.00;100.00;99520.16;5015606;28;20179;-73
2022/10/15 04:46:01;;;;;;;0.00;0.00;;;;;;;11.98;100.00;99506.00;5033370;28;20782;-73
2022/10/15 04:48:34;;;;;;;0.40;0.40;;;;;;;11.99;100.00;99504.84;5015492;28;20451;-73
2022/10/15 04:51:05;;;;;;;0.00;0.00;;;;;;;11.91;100.00;99504.66;5033264;28;20180;-73
2022/10/15 04:53:31;;;;;;;0.80;0.80;;;;;;;11.91;100.00;99507.38;5033238;28;20648;-73
2022/10/15 04:56:04;;;;;;;1.20;1.20;;;;;;;12.02;100.00;99509.66;5033089;28;20178;-73
2022/10/15 04:58:30;;;;;;;2.20;2.03;;;;;;;12.13;100.00;99508.84;5033211;28;20659;-73
2022/10/15 05:01:05;;;;;;;6.33;2.87;;;;;;;12.17;100.00;99507.03;5032930;28;20253;-73
2022/10/15 05:03:32;;;;;;;2.17;1.97;;;;;;;12.23;100.00;99506.78;5032745;28;20317;-73
2022/10/15 05:06:02;;;;;;;4.30;3.90;;;;;;;12.33;100.00;99503.56;5032094;28;20180;-73
2022/10/15 05:08:29;;;;;;;4.70;4.27;;;;;;;12.40;100.00;99504.56;5033096;28;20558;-73
2022/10/15 05:10:58;;;;;;;1.07;1.07;;;;;;;12.39;100.00;99508.44;5025743;28;20184;-73
2022/10/15 05:13:23;;;;;;;3.47;2.73;;;;;;;12.35;100.00;99499.34;5013007;28;20180;-73
2022/10/15 05:15:49;;;;;;;2.10;2.00;;;;;;;12.43;100.00;99497.59;5012804;28;20180;-73
2022/10/15 05:18:14;;;;;;;1.57;1.20;;;;;;;12.42;100.00;99490.50;5013244;28;20654;-72
2022/10/15 05:20:39;;;;;;;0.87;0.63;;;;;;;12.46;100.00;99491.44;5015289;28;20207;-72
2022/10/15 05:23:05;;;;;;;0.90;0.90;;;;;;;12.41;100.00;99497.16;5015850;28;20282;-73
2022/10/15 05:25:30;;;;;;;0.50;0.50;;;;;;;12.36;100.00;99498.19;5014044;28;20179;-73
2022/10/15 05:27:55;;;;;;;0.73;0.73;;;;;;;12.33;100.00;99498.09;5012997;28;20176;-72
2022/10/15 05:30:21;;;;;;;0.20;0.20;;;;;;;12.29;100.00;99502.66;5012578;28;20721;-73
2022/10/15 05:32:51;;;;;;;0.10;0.10;;;;;;;12.26;100.00;99495.91;5013130;28;20172;-73
2022/10/15 05:35:16;;;;;;;0.00;0.00;;;;;;;12.23;100.00;99502.09;5012800;28;20182;-73
2022/10/15 05:37:41;;;;;;;0.07;0.07;;;;;;;12.23;100.00;99507.56;5012775;28;20185;-73
2022/10/15 05:40:08;;;;;;;0.00;0.00;;;;;;;12.08;100.00;99514.56;5012607;28;20207;-73
2022/10/15 05:42:33;;;;;;;0.00;0.00;;;;;;;12.10;100.00;99511.47;5012591;28;20262;-73
2022/10/15 05:44:58;;;;;;;0.10;0.10;;;;;;;12.12;100.00;99514.66;5012544;28;20220;-73
2022/10/15 05:47:23;;;;;;;0.00;0.00;;;;;;;12.14;100.00;99520.59;5027618;28;20188;-73
2022/10/15 05:49:49;;;;;;;0.00;0.00;;;;;;;12.06;100.00;99516.03;5012459;28;20292;-73
2022/10/15 05:52:15;;;;;;;0.00;0.00;;;;;;;12.14;100.00;99515.09;5012455;28;20164;-73
2022/10/15 05:54:41;;;;;;;0.00;0.00;;;;;;;12.18;100.00;99527.00;5012314;28;20231;-73
2022/10/15 05:57:06;;;;;;;0.17;0.17;;;;;;;12.18;100.00;99536.00;5012120;28;20200;-72
2022/10/15 05:59:31;;;;;;;0.00;0.00;;;;;;;12.22;100.00;99530.63;5012163;28;20222;-73
2022/10/15 06:01:57;;;;;;;0.00;0.00;;;;;;;12.21;100.00;99535.31;5012189;28;20185;-73
2022/10/15 06:04:22;;;;;;;0.37;0.37;;;;;;;12.23;100.00;99539.63;5012146;28;20189;-73
2022/10/15 06:06:47;;;;;;;1.30;1.30;;;;;;;12.19;100.00;99547.75;5012081;28;20255;-74
2022/10/15 06:09:13;;;;;;;0.20;0.20;;;;;;;12.17;100.00;99544.56;5012044;28;20173;-73
2022/10/15 06:11:39;;;;;;;0.00;0.00;;;;;;;12.06;100.00;99537.94;5011928;28;20199;-73
2022/10/15 06:14:04;;;;;;;0.00;0.00;;;;;;;11.97;100.00;99540.00;5012102;28;20173;-73
2022/10/15 06:16:29;;;;;;;0.00;0.00;;;;;;;11.85;100.00;99535.31;5011739;28;20176;-73
2022/10/15 06:18:55;;;;;;;0.00;0.00;;;;;;;11.93;100.00;99539.09;5011963;28;20176;-75
2022/10/15 06:21:20;;;;;;;0.00;0.00;;;;;;;11.98;100.00;99538.84;5008637;28;20554;-73
2022/10/15 06:23:46;;;;;;;0.00;0.00;;;;;;;12.04;100.00;99545.72;4992205;28;20280;-73
2022/10/15 06:26:11;;;;;;;0.00;0.00;;;;;;;12.08;100.00;99546.63;4991756;28;20177;-73
2022/10/15 06:28:37;;;;;;;0.00;0.00;;;;;;;12.06;100.00;99538.75;4992325;28;20268;-76
2022/10/15 06:31:04;;;;;;;0.00;0.00;;;;;;;12.03;100.00;99546.84;4992177;28;20173;-76
2022/10/15 06:33:31;;;;;;;0.00;0.00;;;;;;;11.94;100.00;99543.44;4992069;28;20201;-76
2022/10/15 06:36:08;;;;;;;0.00;0.00;;;;;;;12.03;100.00;99549.59;4991760;28;20565;-76
2022/10/15 06:38:34;;;;;;;0.00;0.00;;;;;;;11.99;100.00;99551.41;4992054;28;20714;-75
2022/10/15 06:41:03;;;;;;;0.00;0.00;;;;;;;12.00;100.00;99555.72;4997373;28;20205;-74
2022/10/15 06:43:29;;;;;;;0.00;0.00;;;;;;;11.94;100.00;99562.59;5011656;28;20181;-74
2022/10/15 06:45:54;;;;;;;0.00;0.00;;;;;;;11.97;100.00;99557.22;5011244;28;20536;-73
2022/10/15 06:48:19;;;;;;;0.00;0.00;;;;;;;12.19;100.00;99562.25;5011443;28;20180;-74
2022/10/15 06:50:44;;;;;;;1.50;1.50;;;;;;;12.36;100.00;99561.19;5011133;28;20259;-73
2022/10/15 06:53:10;;;;;;;0.07;0.07;;;;;;;12.42;100.00;99561.75;5011336;28;20660;-73
2022/10/15 06:55:37;;;;;;;0.00;0.00;;;;;;;12.45;100.00;99563.81;5011456;28;20176;-76
2022/10/15 06:58:02;;;;;;;0.00;0.00;;;;;;;12.60;100.00;99565.03;5011203;28;20272;-76
2022/10/15 07:00:28;;;;;;;0.00;0.00;;;;;;;12.59;100.00;99569.72;5011267;28;20299;-76
2022/10/15 07:02:53;;;;;;;0.00;0.00;;;;;;;12.67;100.00;99578.94;5011005;28;20191;-76
2022/10/15 07:05:19;;;;;;;0.00;0.00;;;;;;;12.67;100.00;99578.94;5010582;28;20572;-76
2022/10/15 07:07:55;;;;;;;0.00;0.00;;;;;;;12.80;100.00;99584.03;5010644;28;20181;-76
2022/10/15 07:10:21;;;;;;;0.00;0.00;;;;;;;12.87;100.00;99588.91;5010769;28;20192;-76
2022/10/15 07:12:46;;;;;;;0.20;0.20;;;;;;;12.93;100.00;99590.28;5010710;28;20264;-76
2022/10/15 07:15:12;;;;;;;0.00;0.00;;;;;;;12.97;100.00;99604.88;5010932;28;20267;-77
2022/10/15 07:17:38;;;;;;;0.00;0.00;;;;;;;13.03;100.00;99602.72;5010830;28;20271;-76
2022/10/15 07:20:04;;;;;;;0.50;0.50;;;;;;;13.08;100.00;99600.50;5010945;28;20222;-75
2022/10/15 07:22:30;;;;;;;0.00;0.00;;;;;;;13.07;100.00;99609.88;5011337;28;20181;-76
2022/10/15 07:24:55;;;;;;;0.00;0.00;;;;;;;13.11;100.00;99610.78;5011056;28;20639;-76
2022/10/15 07:27:20;;;;;;;0.00;0.00;;;;;;;13.08;100.00;99608.75;5012614;28;20177;-75
2022/10/15 07:29:46;;;;;;;0.00;0.00;;;;;;;13.02;100.00;99612.88;5015838;28;20266;-76
2022/10/15 07:32:11;;;;;;;0.10;0.10;;;;;;;12.98;100.00;99611.97;5020366;28;20259;-75
2022/10/15 07:34:36;;;;;;;0.00;0.00;;;;;;;12.98;100.00;99611.16;5017168;28;20263;-76
2022/10/15 07:37:02;;;;;;;0.00;0.00;;;;;;;12.95;100.00;99609.94;5017302;28;20247;-75
2022/10/15 07:39:27;;;;;;;0.00;0.00;;;;;;;13.00;100.00;99603.38;5017204;28;20178;-80
2022/10/15 07:41:52;;;;;;;0.00;0.00;;;;;;;13.04;100.00;99605.09;5017481;28;20382;-78
2022/10/15 07:44:18;;;;;;;0.00;0.00;;;;;;;13.00;100.00;99604.19;5017247;28;20200;-82
2022/10/15 07:46:43;;;;;;;0.00;0.00;;;;;;;13.00;100.00;99598.69;5017160;28;20214;-79
2022/10/15 07:49:10;;;;;;;0.00;0.00;;;;;;;13.07;100.00;99598.91;5017392;28;20172;-75
2022/10/15 07:51:35;;;;;;;0.77;0.77;;;;;;;13.32;100.00;99601.59;5017177;28;20169;-75
2022/10/15 07:54:00;;;;;;;0.00;0.00;;;;;;;13.40;100.00;99604.16;5027278;28;20567;-76
2022/10/15 07:56:26;;;;;;;1.23;1.23;;;;;;;13.50;100.00;99610.31;5036908;28;20199;-76
2022/10/15 07:58:51;;;;;;;0.87;0.87;;;;;;;13.53;100.00;99604.09;5033834;28;20727;-75
2022/10/15 08:01:18;;;;;;;1.10;0.90;;;;;;;13.55;100.00;99610.84;5018614;28;20557;-75
2022/10/15 08:03:44;;;;;;;2.37;1.07;;;;;;;13.61;100.00;99606.69;5016825;28;20856;-75
2022/10/15 08:06:09;;;;;;;0.60;0.60;;;;;;;13.62;100.00;99610.25;5017072;28;20263;-76
2022/10/15 08:08:36;;;;;;;2.20;2.00;;;;;;;13.69;100.00;99610.41;5017048;28;20255;-75
2022/10/15 08:11:13;;;;;;;2.00;1.73;;;;;;;13.76;100.00;99620.81;5030388;28;20271;-74
2022/10/15 08:13:40;;;;;;;0.37;0.37;;;;;;;13.81;100.00;99624.06;5025389;28;20659;-74
2022/10/15 08:16:10;;;;;;;1.67;1.60;;;;;;;13.85;100.00;99622.22;5017196;28;20226;-75
2022/10/15 08:18:36;;;;;;;2.07;1.97;;;;;;;13.92;100.00;99619.66;5016845;28;20271;-75
2022/10/15 08:21:02;;;;;;;2.73;2.57;;;;;;;13.92;100.00;99621.59;5016837;28;20227;-75
2022/10/15 08:23:28;;;;;;;2.33;2.17;;;;;;;13.96;100.00;99626.03;5017045;28;20326;-75
2022/10/15 08:25:53;;;;;;;3.00;2.67;;;;;;;14.01;100.00;99630.44;5016412;28;20649;-75
2022/10/15 08:28:18;;;;;;;3.17;3.00;;;;;;;14.04;100.00;99627.00;5016692;28;20264;-74
2022/10/15 08:30:44;;;;;;;2.83;2.63;;;;;;;14.09;100.00;99623.19;5027895;28;20180;-74
2022/10/15 08:33:09;;;;;;;1.23;1.13;;;;;;;14.15;100.00;99624.50;5036565;28;20526;-75
2022/10/15 08:35:37;;;;;;;3.27;3.07;;;;;;;14.16;100.00;99629.66;5036579;28;20195;-75
2022/10/15 08:38:03;;;;;;;2.10;2.00;;;;;;;14.19;100.00;99622.66;5036447;28;20171;-76
2022/10/15 08:40:29;;;;;;;0.00;0.00;;;;;;;14.20;100.00;99633.31;5033332;28;20215;-75
2022/10/15 08:42:55;;;;;;;3.40;1.20;;;;;;;14.27;100.00;99633.47;5033463;28;20227;-75
2022/10/15 08:45:38;;;;;;;4.20;3.90;;;;;;;14.28;100.00;99634.25;5033453;28;20502;-75
2022/10/15 08:48:13;;;;;;;5.83;5.33;;;;;;;14.34;100.00;99637.53;5033404;28;20579;-75
2022/10/15 08:50:47;;;;;;;6.47;5.87;;;;;;;14.38;100.00;99643.91;5033164;28;20171;-75
2022/10/15 08:53:20;;;;;;;6.30;5.80;;;;;;;14.33;100.00;99642.25;5033393;28;20176;-75
2022/10/15 08:55:52;;;;;;;4.70;1.50;;;;;;;14.34;100.00;99634.81;5032973;28;20560;-75
2022/10/15 08:58:48;;;;;;;0.00;0.00;;;;;;;14.43;100.00;99638.13;5033298;28;20203;-76
2022/10/15 09:01:36;;;;;;;0.83;0.83;;;;;;;14.50;100.00;99641.09;5002158;28;20219;-74
2022/10/15 09:04:10;;;;;;;4.03;1.40;;;;;;;14.57;100.00;99642.03;5033194;28;20266;-74
2022/10/15 09:06:37;;;;;;;8.20;6.40;;;;;;;14.54;100.00;99644.72;5032786;28;20758;-73
2022/10/15 09:09:17;;;;;;;2.90;2.70;;;;;;;14.50;100.00;99643.84;5033001;28;20756;-73
2022/10/15 09:11:58;;;;;;;3.20;1.70;;;;;;;14.56;100.00;99648.69;5033027;28;20628;-73
2022/10/15 09:14:32;;;;;;;4.73;4.43;;;;;;;14.59;100.00;99650.72;5032964;28;20263;-73
2022/10/15 09:17:02;;;;;;;0.80;0.77;;;;;;;14.63;100.00;99655.53;5020195;28;20188;-74
2022/10/15 09:19:29;;;;;;;4.90;3.60;;;;;;;14.68;100.00;99656.03;5013079;28;20177;-74
2022/10/15 09:21:55;;;;;;;8.17;7.47;;;;;;;14.73;100.00;99657.72;5012758;28;20299;-71
2022/10/15 09:24:23;;;;;;;3.43;3.13;;;;;;;14.81;100.00;99651.22;5013176;28;20181;-75
2022/10/15 09:27:11;;;;;;;3.30;3.00;;;;;;;14.87;100.00;99655.28;5012699;28;20383;-75
2022/10/15 09:29:57;;;;;;;3.73;3.43;;;;;;;15.05;100.00;99653.72;5012823;28;20180;-76
2022/10/15 09:32:33;;;;;;;4.87;4.40;;;;;;;15.19;100.00;99656.00;5008766;28;20200;-76
2022/10/15 09:35:11;;;;;;;1.67;1.30;;;;;;;15.30;100.00;99653.44;5009714;28;20176;-76
2022/10/15 09:38:02;;;;;;;0.57;0.40;;;;;;;15.33;100.00;99661.75;5012417;28;20267;-76
2022/10/15 09:40:51;;;;;;;1.30;1.30;;;;;;;15.42;100.00;99656.84;5017822;28;20203;-75
2022/10/15 09:43:27;;;;;;;1.93;1.83;;;;;;;15.44;100.00;99662.78;5032492;28;20199;-76
2022/10/15 09:45:53;;;;;;;2.43;2.17;;;;;;;15.42;100.00;99664.31;5031524;28;20306;-76
2022/10/15 09:48:19;;;;;;;0.00;0.00;;;;;;;15.34;100.00;99655.13;5031642;28;20642;-75
2022/10/15 09:51:09;;;;;;;0.87;0.87;;;;;;;15.35;100.00;99653.16;5031189;28;20798;-76
2022/10/15 09:53:44;;;;;;;3.30;1.80;;;;;;;15.34;100.00;99652.38;5031811;28;20176;-76
2022/10/15 09:56:18;;;;;;;1.63;1.53;;;;;;;15.33;100.00;99656.25;5031911;28;20233;-76
2022/10/15 09:58:49;;;;;;;4.33;3.07;;;;;;;15.32;100.00;99657.41;5031757;28;20182;-75
2022/10/15 10:01:24;;;;;;;0.00;0.00;;;;;;;15.35;100.00;99659.47;5031605;28;20725;-75
2022/10/15 10:04:08;;;;;;;0.00;0.00;;;;;;;15.44;100.00;99660.03;5031482;28;20187;-75
2022/10/15 10:06:43;;;;;;;7.13;1.37;;;;;;;15.55;100.00;99656.69;5031434;28;20187;-74
2022/10/15 10:09:15;;;;;;;0.00;0.00;;;;;;;15.63;100.00;99663.97;5031592;28;20627;-75
2022/10/15 10:11:53;;;;;;;1.17;1.17;;;;;;;15.71;100.00;99660.97;5031348;28;20179;-74
2022/10/15 10:14:26;;;;;;;3.63;3.43;;;;;;;15.67;98.66;99662.88;5031329;28;20675;-74
2022/10/15 10:17:16;;;;;;;1.63;1.03;;;;;;;15.71;98.08;99668.44;5022824;28;20185;-72
2022/10/15 10:19:43;;;;;;;2.80;2.57;;;;;;;15.71;98.26;99671.19;5018140;28;20206;-74
2022/10/15 10:22:18;;;;;;;0.50;0.47;;;;;;;15.67;98.68;99664.81;5010594;28;20569;-76
2022/10/15 10:24:45;;;;;;;0.43;0.43;;;;;;;15.70;99.48;99667.63;5011632;28;20178;-76
2022/10/15 10:27:20;;;;;;;4.07;2.87;;;;;;;15.69;99.51;99662.50;5011667;28;20184;-75
2022/10/15 10:29:55;;;;;;;2.43;2.33;;;;;;;15.66;99.39;99663.22;5011704;28;20679;-74
2022/10/15 10:32:27;;;;;;;3.13;2.93;;;;;;;15.61;98.56;99644.22;5011925;28;20176;-77
2022/10/15 10:34:53;;;;;;;0.47;0.30;;;;;;;15.64;98.51;99646.28;5011750;28;20539;-76
2022/10/15 10:37:19;;;;;;;1.50;1.40;;;;;;;15.70;98.54;99648.38;5011502;28;20252;-71
2022/10/15 10:39:50;;;;;;;3.73;2.67;;;;;;;15.86;97.54;99647.47;5011600;28;20173;-69
2022/10/15 10:42:15;;;;;;;4.50;4.10;;;;;;;15.92;96.17;99651.53;5011406;28;20433;-69
2022/10/15 10:44:45;;;;;;;0.67;0.67;;;;;;;15.90;94.91;99648.31;5011955;28;20192;-74
2022/10/15 10:47:16;;;;;;;3.80;3.50;;;;;;;16.05;94.96;99647.41;5021872;28;20186;-75
2022/10/15 10:49:46;;;;;;;0.20;0.20;;;;;;;16.22;92.45;99651.63;5031141;28;20180;-75
2022/10/15 10:52:33;;;;;;;1.97;1.87;;;;;;;16.40;89.98;99649.16;5031342;28;20179;-75
2022/10/15 10:55:03;;;;;;;0.10;0.10;;;;;;;16.31;87.04;99632.88;5013245;28;20184;-75
2022/10/15 10:57:53;;;;;;;0.40;0.40;;;;;;;16.35;88.54;99637.28;5031320;28;20594;-75
2022/10/15 11:00:28;;;;;;;2.70;1.60;;;;;;;16.52;87.64;99635.19;5023292;28;20223;-74
2022/10/15 11:02:55;;;;;;;0.00;0.00;;;;;;;16.80;88.02;99640.34;5012288;28;20201;-75
2022/10/15 11:05:29;;;;;;;0.93;0.77;;;;;;;16.88;85.61;99637.28;5030619;28;20183;-75
2022/10/15 11:08:03;;;;;;;2.10;1.93;;;;;;;16.95;83.66;99634.66;5030844;28;20602;-75
2022/10/15 11:10:36;;;;;;;0.00;0.00;;;;;;;17.02;83.82;99646.94;5029551;28;20186;-74
2022/10/15 11:13:29;;;;;;;1.43;1.33;;;;;;;17.19;82.48;99635.31;5030701;28;20587;-74
2022/10/15 11:15:58;;;;;;;0.10;0.10;;;;;;;17.25;82.40;99629.09;5030438;28;20183;-74
2022/10/15 11:18:39;;;;;;;0.53;0.47;;;;;;;17.38;82.20;99631.63;5028600;28;20255;-74
2022/10/15 11:21:20;;;;;;;6.37;1.40;;;;;;;17.41;82.37;99636.38;5010798;28;20231;-76
2022/10/15 11:23:45;;;;;;;0.00;0.00;;;;;;;17.18;81.73;99625.44;5021066;28;20183;-75
2022/10/15 11:26:26;;;;;;;5.20;3.60;;;;;;;17.22;81.91;99615.28;5030386;28;20176;-73
2022/10/15 11:29:12;;;;;;;1.33;1.23;;;;;;;17.23;82.25;99616.84;5029231;28;20528;-73
2022/10/15 11:32:19;;;;;;;0.00;0.00;;;;;;;17.30;82.12;99622.44;5030600;28;20203;-74
2022/10/15 11:34:51;;;;;;;0.43;0.43;;;;;;;17.37;82.81;99628.06;5029396;28;20269;-72
2022/10/15 11:37:29;;;;;;;0.73;0.73;;;;;;;17.42;82.27;99621.41;5030376;28;20187;-71
2022/10/15 11:40:12;;;;;;;0.43;0.17;;;;;;;17.27;81.26;99614.13;5030648;28;20191;-71